sensor_id;sensor_type;location;lat;lon;timestamp;P1;durP1;ratioP1;P2;durP2;ratioP2
63807;SDS011;49961;43.970;22.868;2023-06-22T00:00:27;9.83;;;8.83;;
63807;SDS011;49961;43.970;22.868;2023-06-22T00:01:27;9.70;;;8.73;;
63807;SDS011;49961;43.970;22.868;2023-06-22T00:02:28;11.47;;;8.13;;
63807;SDS011;49961;43.970;22.868;2023-06-22T00:03:28;9.43;;;8.40;;
63807;SDS011;49961;43.970;22.868;2023-06-22T00:04:29;9.73;;;8.17;;
63807;SDS011;49961;43.970;22.868;2023-06-22T00:05:29;9.10;;;8.20;;
63807;SDS011;49961;43.970;22.868;2023-06-22T00:06:30;9.57;;;8.67;;
63807;SDS011;49961;43.970;22.868;2023-06-22T00:07:30;11.03;;;9.20;;
63807;SDS011;49961;43.970;22.868;2023-06-22T00:08:30;14.67;;;9.30;;
63807;SDS011;49961;43.970;22.868;2023-06-22T00:09:31;9.60;;;8.60;;
63807;SDS011;49961;43.970;22.868;2023-06-22T00:10:32;9.73;;;8.73;;
63807;SDS011;49961;43.970;22.868;2023-06-22T00:11:33;10.10;;;8.43;;
63807;SDS011;49961;43.970;22.868;2023-06-22T00:12:33;10.43;;;8.40;;
63807;SDS011;49961;43.970;22.868;2023-06-22T00:13:34;9.50;;;8.17;;
63807;SDS011;49961;43.970;22.868;2023-06-22T00:14:34;12.10;;;7.70;;
63807;SDS011;49961;43.970;22.868;2023-06-22T00:15:35;9.73;;;7.97;;
63807;SDS011;49961;43.970;22.868;2023-06-22T00:16:37;9.37;;;8.10;;
63807;SDS011;49961;43.970;22.868;2023-06-22T00:17:38;10.33;;;8.80;;
63807;SDS011;49961;43.970;22.868;2023-06-22T00:18:38;9.83;;;8.40;;
63807;SDS011;49961;43.970;22.868;2023-06-22T00:19:39;9.27;;;8.07;;
63807;SDS011;49961;43.970;22.868;2023-06-22T00:20:41;9.17;;;8.27;;
63807;SDS011;49961;43.970;22.868;2023-06-22T00:21:42;11.13;;;8.00;;
63807;SDS011;49961;43.970;22.868;2023-06-22T00:22:43;9.10;;;8.20;;
63807;SDS011;49961;43.970;22.868;2023-06-22T00:23:44;12.07;;;8.60;;
63807;SDS011;49961;43.970;22.868;2023-06-22T00:24:44;9.70;;;7.67;;
63807;SDS011;49961;43.970;22.868;2023-06-22T00:25:44;9.17;;;8.27;;
63807;SDS011;49961;43.970;22.868;2023-06-22T00:26:45;9.97;;;8.40;;
63807;SDS011;49961;43.970;22.868;2023-06-22T00:27:46;11.83;;;7.90;;
63807;SDS011;49961;43.970;22.868;2023-06-22T00:28:46;11.00;;;8.60;;
63807;SDS011;49961;43.970;22.868;2023-06-22T00:29:47;10.30;;;8.70;;
63807;SDS011;49961;43.970;22.868;2023-06-22T00:30:50;10.17;;;8.23;;
63807;SDS011;49961;43.970;22.868;2023-06-22T00:31:51;10.40;;;8.10;;
63807;SDS011;49961;43.970;22.868;2023-06-22T00:32:51;11.27;;;7.87;;
63807;SDS011;49961;43.970;22.868;2023-06-22T00:33:52;9.40;;;7.97;;
63807;SDS011;49961;43.970;22.868;2023-06-22T00:34:52;8.67;;;7.67;;
63807;SDS011;49961;43.970;22.868;2023-06-22T00:35:52;8.53;;;7.63;;
63807;SDS011;49961;43.970;22.868;2023-06-22T00:36:53;8.07;;;7.27;;
63807;SDS011;49961;43.970;22.868;2023-06-22T00:37:57;9.67;;;8.67;;
63807;SDS011;49961;43.970;22.868;2023-06-22T00:39:00;10.43;;;8.77;;
63807;SDS011;49961;43.970;22.868;2023-06-22T00:40:01;11.77;;;8.30;;
63807;SDS011;49961;43.970;22.868;2023-06-22T00:41:03;9.03;;;7.77;;
63807;SDS011;49961;43.970;22.868;2023-06-22T00:42:03;9.80;;;8.30;;
63807;SDS011;49961;43.970;22.868;2023-06-22T00:43:04;10.63;;;8.70;;
63807;SDS011;49961;43.970;22.868;2023-06-22T00:44:05;10.47;;;8.63;;
63807;SDS011;49961;43.970;22.868;2023-06-22T00:45:08;10.17;;;8.17;;
63807;SDS011;49961;43.970;22.868;2023-06-22T00:46:09;9.20;;;8.23;;
63807;SDS011;49961;43.970;22.868;2023-06-22T00:47:09;9.57;;;8.10;;
63807;SDS011;49961;43.970;22.868;2023-06-22T00:48:13;9.30;;;8.27;;
63807;SDS011;49961;43.970;22.868;2023-06-22T00:49:14;9.03;;;8.13;;
63807;SDS011;49961;43.970;22.868;2023-06-22T00:50:16;12.27;;;8.00;;
63807;SDS011;49961;43.970;22.868;2023-06-22T00:51:20;12.00;;;8.57;;
63807;SDS011;49961;43.970;22.868;2023-06-22T00:52:24;10.07;;;8.73;;
63807;SDS011;49961;43.970;22.868;2023-06-22T00:53:29;10.07;;;8.60;;
63807;SDS011;49961;43.970;22.868;2023-06-22T00:54:30;9.70;;;8.73;;
63807;SDS011;49961;43.970;22.868;2023-06-22T00:55:30;10.80;;;8.07;;
63807;SDS011;49961;43.970;22.868;2023-06-22T00:56:31;9.13;;;8.23;;
63807;SDS011;49961;43.970;22.868;2023-06-22T00:57:32;8.90;;;8.00;;
63807;SDS011;49961;43.970;22.868;2023-06-22T00:58:32;8.70;;;7.83;;
63807;SDS011;49961;43.970;22.868;2023-06-22T00:59:33;8.13;;;7.33;;
63807;SDS011;49961;43.970;22.868;2023-06-22T01:00:34;9.10;;;7.90;;
63807;SDS011;49961;43.970;22.868;2023-06-22T01:01:34;10.17;;;8.07;;
63807;SDS011;49961;43.970;22.868;2023-06-22T01:02:41;9.37;;;7.77;;
63807;SDS011;49961;43.970;22.868;2023-06-22T01:03:41;8.67;;;7.60;;
63807;SDS011;49961;43.970;22.868;2023-06-22T01:04:42;8.20;;;7.40;;
63807;SDS011;49961;43.970;22.868;2023-06-22T01:05:42;8.63;;;7.83;;
63807;SDS011;49961;43.970;22.868;2023-06-22T01:06:54;8.60;;;7.60;;
63807;SDS011;49961;43.970;22.868;2023-06-22T01:09:31;10.07;;;7.27;;
63807;SDS011;49961;43.970;22.868;2023-06-22T01:11:40;8.73;;;7.70;;
63807;SDS011;49961;43.970;22.868;2023-06-22T01:12:49;8.80;;;7.87;;
63807;SDS011;49961;43.970;22.868;2023-06-22T01:15:11;10.47;;;7.70;;
63807;SDS011;49961;43.970;22.868;2023-06-22T01:17:30;10.77;;;7.33;;
63807;SDS011;49961;43.970;22.868;2023-06-22T01:18:32;9.23;;;7.70;;
63807;SDS011;49961;43.970;22.868;2023-06-22T01:20:53;9.30;;;8.03;;
63807;SDS011;49961;43.970;22.868;2023-06-22T01:21:57;10.37;;;7.47;;
63807;SDS011;49961;43.970;22.868;2023-06-22T01:29:14;8.50;;;7.73;;
63807;SDS011;49961;43.970;22.868;2023-06-22T01:30:16;8.97;;;8.07;;
63807;SDS011;49961;43.970;22.868;2023-06-22T01:31:19;13.97;;;9.53;;
63807;SDS011;49961;43.970;22.868;2023-06-22T01:32:22;9.60;;;8.53;;
63807;SDS011;49961;43.970;22.868;2023-06-22T01:33:22;10.43;;;8.70;;
63807;SDS011;49961;43.970;22.868;2023-06-22T01:34:23;10.20;;;8.27;;
63807;SDS011;49961;43.970;22.868;2023-06-22T01:35:24;8.40;;;7.60;;
63807;SDS011;49961;43.970;22.868;2023-06-22T01:36:25;9.17;;;7.87;;
63807;SDS011;49961;43.970;22.868;2023-06-22T01:37:27;9.50;;;8.50;;
63807;SDS011;49961;43.970;22.868;2023-06-22T01:38:29;10.93;;;8.43;;
63807;SDS011;49961;43.970;22.868;2023-06-22T01:39:31;15.23;;;8.70;;
63807;SDS011;49961;43.970;22.868;2023-06-22T01:40:32;15.87;;;9.53;;
63807;SDS011;49961;43.970;22.868;2023-06-22T01:41:35;15.30;;;8.50;;
63807;SDS011;49961;43.970;22.868;2023-06-22T01:42:38;13.90;;;8.30;;
63807;SDS011;49961;43.970;22.868;2023-06-22T01:43:39;12.30;;;8.73;;
63807;SDS011;49961;43.970;22.868;2023-06-22T01:44:40;10.67;;;8.20;;
63807;SDS011;49961;43.970;22.868;2023-06-22T01:45:41;11.33;;;8.57;;
63807;SDS011;49961;43.970;22.868;2023-06-22T01:46:42;14.47;;;8.70;;
63807;SDS011;49961;43.970;22.868;2023-06-22T01:47:43;11.97;;;8.87;;
63807;SDS011;49961;43.970;22.868;2023-06-22T01:48:44;12.10;;;8.57;;
63807;SDS011;49961;43.970;22.868;2023-06-22T01:49:44;17.27;;;8.70;;
63807;SDS011;49961;43.970;22.868;2023-06-22T01:50:46;11.90;;;8.83;;
63807;SDS011;49961;43.970;22.868;2023-06-22T01:51:47;14.97;;;8.67;;
63807;SDS011;49961;43.970;22.868;2023-06-22T01:52:47;12.93;;;8.87;;
63807;SDS011;49961;43.970;22.868;2023-06-22T01:53:48;14.00;;;8.50;;
63807;SDS011;49961;43.970;22.868;2023-06-22T01:54:48;11.57;;;8.10;;
63807;SDS011;49961;43.970;22.868;2023-06-22T01:55:49;12.10;;;7.57;;
63807;SDS011;49961;43.970;22.868;2023-06-22T01:56:49;9.23;;;8.03;;
63807;SDS011;49961;43.970;22.868;2023-06-22T01:57:50;13.17;;;8.60;;
63807;SDS011;49961;43.970;22.868;2023-06-22T01:59:06;13.07;;;8.10;;
63807;SDS011;49961;43.970;22.868;2023-06-22T02:00:13;16.07;;;8.63;;
63807;SDS011;49961;43.970;22.868;2023-06-22T02:01:20;15.03;;;8.33;;
63807;SDS011;49961;43.970;22.868;2023-06-22T02:02:25;14.40;;;8.63;;
63807;SDS011;49961;43.970;22.868;2023-06-22T02:03:34;21.63;;;9.00;;
63807;SDS011;49961;43.970;22.868;2023-06-22T02:04:48;30.13;;;10.20;;
63807;SDS011;49961;43.970;22.868;2023-06-22T02:05:56;11.03;;;7.20;;
63807;SDS011;49961;43.970;22.868;2023-06-22T02:07:12;9.47;;;7.10;;
63807;SDS011;49961;43.970;22.868;2023-06-22T02:08:20;10.97;;;7.50;;
63807;SDS011;49961;43.970;22.868;2023-06-22T02:09:23;11.00;;;7.13;;
63807;SDS011;49961;43.970;22.868;2023-06-22T02:10:28;10.27;;;7.63;;
63807;SDS011;49961;43.970;22.868;2023-06-22T02:11:31;8.87;;;7.40;;
63807;SDS011;49961;43.970;22.868;2023-06-22T02:12:33;13.03;;;7.63;;
63807;SDS011;49961;43.970;22.868;2023-06-22T02:13:36;9.17;;;7.37;;
63807;SDS011;49961;43.970;22.868;2023-06-22T02:14:40;12.80;;;8.07;;
63807;SDS011;49961;43.970;22.868;2023-06-22T02:15:41;13.27;;;8.20;;
63807;SDS011;49961;43.970;22.868;2023-06-22T02:16:42;15.67;;;8.60;;
63807;SDS011;49961;43.970;22.868;2023-06-22T02:17:43;13.67;;;8.07;;
63807;SDS011;49961;43.970;22.868;2023-06-22T02:18:48;12.60;;;8.77;;
63807;SDS011;49961;43.970;22.868;2023-06-22T02:19:52;12.90;;;8.13;;
63807;SDS011;49961;43.970;22.868;2023-06-22T02:20:53;11.63;;;8.10;;
63807;SDS011;49961;43.970;22.868;2023-06-22T02:21:53;12.93;;;8.20;;
63807;SDS011;49961;43.970;22.868;2023-06-22T02:22:54;13.37;;;8.23;;
63807;SDS011;49961;43.970;22.868;2023-06-22T02:23:54;12.50;;;8.13;;
63807;SDS011;49961;43.970;22.868;2023-06-22T02:24:54;13.17;;;7.63;;
63807;SDS011;49961;43.970;22.868;2023-06-22T02:25:56;15.30;;;8.37;;
63807;SDS011;49961;43.970;22.868;2023-06-22T02:26:57;12.87;;;8.27;;
63807;SDS011;49961;43.970;22.868;2023-06-22T02:27:58;10.70;;;8.47;;
63807;SDS011;49961;43.970;22.868;2023-06-22T02:28:58;10.23;;;8.10;;
63807;SDS011;49961;43.970;22.868;2023-06-22T02:29:59;10.23;;;8.80;;
63807;SDS011;49961;43.970;22.868;2023-06-22T02:30:59;11.27;;;7.40;;
63807;SDS011;49961;43.970;22.868;2023-06-22T02:31:59;11.57;;;7.80;;
63807;SDS011;49961;43.970;22.868;2023-06-22T02:33:00;14.70;;;8.13;;
63807;SDS011;49961;43.970;22.868;2023-06-22T02:34:00;20.27;;;8.63;;
63807;SDS011;49961;43.970;22.868;2023-06-22T02:35:01;18.67;;;9.37;;
63807;SDS011;49961;43.970;22.868;2023-06-22T02:36:05;18.10;;;9.20;;
63807;SDS011;49961;43.970;22.868;2023-06-22T02:37:09;21.60;;;8.67;;
63807;SDS011;49961;43.970;22.868;2023-06-22T02:38:10;22.67;;;9.70;;
63807;SDS011;49961;43.970;22.868;2023-06-22T02:39:11;18.97;;;9.47;;
63807;SDS011;49961;43.970;22.868;2023-06-22T02:40:11;19.40;;;9.90;;
63807;SDS011;49961;43.970;22.868;2023-06-22T02:41:12;17.97;;;9.63;;
63807;SDS011;49961;43.970;22.868;2023-06-22T02:42:14;16.47;;;9.57;;
63807;SDS011;49961;43.970;22.868;2023-06-22T02:43:15;21.43;;;9.27;;
63807;SDS011;49961;43.970;22.868;2023-06-22T02:44:15;15.83;;;9.20;;
63807;SDS011;49961;43.970;22.868;2023-06-22T02:45:16;16.80;;;9.63;;
63807;SDS011;49961;43.970;22.868;2023-06-22T02:46:16;13.77;;;9.43;;
63807;SDS011;49961;43.970;22.868;2023-06-22T02:47:17;17.17;;;9.23;;
63807;SDS011;49961;43.970;22.868;2023-06-22T02:48:17;20.43;;;9.70;;
63807;SDS011;49961;43.970;22.868;2023-06-22T02:49:18;16.77;;;9.07;;
63807;SDS011;49961;43.970;22.868;2023-06-22T02:50:18;17.07;;;9.23;;
63807;SDS011;49961;43.970;22.868;2023-06-22T02:51:19;13.57;;;8.70;;
63807;SDS011;49961;43.970;22.868;2023-06-22T02:52:19;16.63;;;9.10;;
63807;SDS011;49961;43.970;22.868;2023-06-22T02:53:19;14.87;;;9.13;;
63807;SDS011;49961;43.970;22.868;2023-06-22T02:54:20;14.73;;;9.57;;
63807;SDS011;49961;43.970;22.868;2023-06-22T02:55:21;10.93;;;9.03;;
63807;SDS011;49961;43.970;22.868;2023-06-22T02:56:21;13.10;;;8.90;;
63807;SDS011;49961;43.970;22.868;2023-06-22T02:57:25;11.63;;;8.90;;
63807;SDS011;49961;43.970;22.868;2023-06-22T02:58:25;10.30;;;8.37;;
63807;SDS011;49961;43.970;22.868;2023-06-22T02:59:25;10.80;;;9.27;;
63807;SDS011;49961;43.970;22.868;2023-06-22T03:00:26;12.53;;;9.03;;
63807;SDS011;49961;43.970;22.868;2023-06-22T03:01:30;12.00;;;8.67;;
63807;SDS011;49961;43.970;22.868;2023-06-22T03:02:30;10.57;;;9.10;;
63807;SDS011;49961;43.970;22.868;2023-06-22T03:03:31;11.23;;;8.67;;
63807;SDS011;49961;43.970;22.868;2023-06-22T03:04:31;12.93;;;9.00;;
63807;SDS011;49961;43.970;22.868;2023-06-22T03:05:32;13.67;;;8.33;;
63807;SDS011;49961;43.970;22.868;2023-06-22T03:06:33;10.03;;;8.53;;
63807;SDS011;49961;43.970;22.868;2023-06-22T03:07:33;8.93;;;8.00;;
63807;SDS011;49961;43.970;22.868;2023-06-22T03:08:34;9.93;;;8.90;;
63807;SDS011;49961;43.970;22.868;2023-06-22T03:09:34;10.77;;;8.90;;
63807;SDS011;49961;43.970;22.868;2023-06-22T03:10:35;14.20;;;8.97;;
63807;SDS011;49961;43.970;22.868;2023-06-22T03:11:35;9.03;;;7.80;;
63807;SDS011;49961;43.970;22.868;2023-06-22T03:12:36;11.03;;;8.37;;
63807;SDS011;49961;43.970;22.868;2023-06-22T03:13:37;12.60;;;8.53;;
63807;SDS011;49961;43.970;22.868;2023-06-22T03:14:38;13.57;;;8.63;;
63807;SDS011;49961;43.970;22.868;2023-06-22T03:15:38;9.63;;;8.37;;
63807;SDS011;49961;43.970;22.868;2023-06-22T03:16:39;11.87;;;8.03;;
63807;SDS011;49961;43.970;22.868;2023-06-22T03:17:40;10.77;;;8.93;;
63807;SDS011;49961;43.970;22.868;2023-06-22T03:18:41;13.00;;;8.60;;
63807;SDS011;49961;43.970;22.868;2023-06-22T03:19:41;12.00;;;8.90;;
63807;SDS011;49961;43.970;22.868;2023-06-22T03:20:42;10.20;;;9.17;;
63807;SDS011;49961;43.970;22.868;2023-06-22T03:21:42;11.93;;;9.17;;
63807;SDS011;49961;43.970;22.868;2023-06-22T03:22:43;11.00;;;8.70;;
63807;SDS011;49961;43.970;22.868;2023-06-22T03:23:43;10.27;;;9.13;;
63807;SDS011;49961;43.970;22.868;2023-06-22T03:24:44;17.93;;;10.13;;
63807;SDS011;49961;43.970;22.868;2023-06-22T03:25:44;13.17;;;10.17;;
63807;SDS011;49961;43.970;22.868;2023-06-22T03:26:45;12.20;;;10.03;;
63807;SDS011;49961;43.970;22.868;2023-06-22T03:27:46;17.17;;;10.60;;
63807;SDS011;49961;43.970;22.868;2023-06-22T03:28:48;15.60;;;10.10;;
63807;SDS011;49961;43.970;22.868;2023-06-22T03:29:48;13.73;;;10.23;;
63807;SDS011;49961;43.970;22.868;2023-06-22T03:30:49;12.03;;;10.67;;
63807;SDS011;49961;43.970;22.868;2023-06-22T03:31:49;12.97;;;10.43;;
63807;SDS011;49961;43.970;22.868;2023-06-22T03:32:49;14.53;;;10.73;;
63807;SDS011;49961;43.970;22.868;2023-06-22T03:33:50;13.37;;;10.47;;
63807;SDS011;49961;43.970;22.868;2023-06-22T03:34:50;13.53;;;10.77;;
63807;SDS011;49961;43.970;22.868;2023-06-22T03:35:51;15.40;;;10.67;;
63807;SDS011;49961;43.970;22.868;2023-06-22T03:36:51;12.00;;;10.60;;
63807;SDS011;49961;43.970;22.868;2023-06-22T03:37:52;14.93;;;9.17;;
63807;SDS011;49961;43.970;22.868;2023-06-22T03:38:52;15.07;;;9.87;;
63807;SDS011;49961;43.970;22.868;2023-06-22T03:39:53;15.23;;;10.17;;
63807;SDS011;49961;43.970;22.868;2023-06-22T03:40:54;18.10;;;10.47;;
63807;SDS011;49961;43.970;22.868;2023-06-22T03:41:54;15.10;;;9.87;;
63807;SDS011;49961;43.970;22.868;2023-06-22T03:42:55;14.10;;;10.47;;
63807;SDS011;49961;43.970;22.868;2023-06-22T03:43:55;15.60;;;10.20;;
63807;SDS011;49961;43.970;22.868;2023-06-22T03:44:56;15.77;;;10.23;;
63807;SDS011;49961;43.970;22.868;2023-06-22T03:45:56;14.23;;;9.37;;
63807;SDS011;49961;43.970;22.868;2023-06-22T03:46:57;14.60;;;9.33;;
63807;SDS011;49961;43.970;22.868;2023-06-22T03:47:57;14.13;;;9.53;;
63807;SDS011;49961;43.970;22.868;2023-06-22T03:48:57;15.40;;;10.03;;
63807;SDS011;49961;43.970;22.868;2023-06-22T03:49:58;18.60;;;10.53;;
63807;SDS011;49961;43.970;22.868;2023-06-22T03:50:59;22.90;;;10.90;;
63807;SDS011;49961;43.970;22.868;2023-06-22T03:52:00;15.67;;;9.80;;
63807;SDS011;49961;43.970;22.868;2023-06-22T03:53:04;13.13;;;9.63;;
63807;SDS011;49961;43.970;22.868;2023-06-22T03:54:05;11.20;;;9.17;;
63807;SDS011;49961;43.970;22.868;2023-06-22T03:55:05;19.13;;;9.70;;
63807;SDS011;49961;43.970;22.868;2023-06-22T03:56:06;10.40;;;9.23;;
63807;SDS011;49961;43.970;22.868;2023-06-22T03:57:07;11.97;;;9.03;;
63807;SDS011;49961;43.970;22.868;2023-06-22T03:58:07;15.97;;;9.70;;
63807;SDS011;49961;43.970;22.868;2023-06-22T03:59:09;13.17;;;9.67;;
63807;SDS011;49961;43.970;22.868;2023-06-22T04:00:10;11.10;;;9.90;;
63807;SDS011;49961;43.970;22.868;2023-06-22T04:01:11;12.53;;;11.20;;
63807;SDS011;49961;43.970;22.868;2023-06-22T04:02:11;11.90;;;10.60;;
63807;SDS011;49961;43.970;22.868;2023-06-22T04:03:12;13.60;;;10.50;;
63807;SDS011;49961;43.970;22.868;2023-06-22T04:04:13;12.83;;;11.53;;
63807;SDS011;49961;43.970;22.868;2023-06-22T04:05:13;12.17;;;10.70;;
63807;SDS011;49961;43.970;22.868;2023-06-22T04:06:14;13.13;;;10.60;;
63807;SDS011;49961;43.970;22.868;2023-06-22T04:07:14;12.60;;;10.83;;
63807;SDS011;49961;43.970;22.868;2023-06-22T04:08:15;15.73;;;10.80;;
63807;SDS011;49961;43.970;22.868;2023-06-22T04:09:15;20.10;;;11.43;;
63807;SDS011;49961;43.970;22.868;2023-06-22T04:10:16;18.67;;;11.17;;
63807;SDS011;49961;43.970;22.868;2023-06-22T04:11:17;17.20;;;11.03;;
63807;SDS011;49961;43.970;22.868;2023-06-22T04:12:18;13.03;;;10.37;;
63807;SDS011;49961;43.970;22.868;2023-06-22T04:13:18;16.60;;;10.67;;
63807;SDS011;49961;43.970;22.868;2023-06-22T04:14:19;15.10;;;11.00;;
63807;SDS011;49961;43.970;22.868;2023-06-22T04:15:20;12.60;;;10.37;;
63807;SDS011;49961;43.970;22.868;2023-06-22T04:16:20;17.93;;;11.33;;
63807;SDS011;49961;43.970;22.868;2023-06-22T04:17:20;12.07;;;10.87;;
63807;SDS011;49961;43.970;22.868;2023-06-22T04:18:21;15.73;;;11.13;;
63807;SDS011;49961;43.970;22.868;2023-06-22T04:19:21;13.07;;;11.13;;
63807;SDS011;49961;43.970;22.868;2023-06-22T04:20:22;13.93;;;11.80;;
63807;SDS011;49961;43.970;22.868;2023-06-22T04:21:25;13.30;;;11.57;;
63807;SDS011;49961;43.970;22.868;2023-06-22T04:22:26;16.70;;;12.10;;
63807;SDS011;49961;43.970;22.868;2023-06-22T04:23:26;14.87;;;11.30;;
63807;SDS011;49961;43.970;22.868;2023-06-22T04:24:26;15.27;;;11.23;;
63807;SDS011;49961;43.970;22.868;2023-06-22T04:25:27;17.93;;;11.83;;
63807;SDS011;49961;43.970;22.868;2023-06-22T04:26:27;16.83;;;11.00;;
63807;SDS011;49961;43.970;22.868;2023-06-22T04:27:28;13.47;;;10.90;;
63807;SDS011;49961;43.970;22.868;2023-06-22T04:28:28;16.77;;;11.37;;
63807;SDS011;49961;43.970;22.868;2023-06-22T04:29:29;13.50;;;11.57;;
63807;SDS011;49961;43.970;22.868;2023-06-22T04:30:32;15.33;;;11.37;;
63807;SDS011;49961;43.970;22.868;2023-06-22T04:31:33;14.07;;;10.90;;
63807;SDS011;49961;43.970;22.868;2023-06-22T04:32:36;12.77;;;11.40;;
63807;SDS011;49961;43.970;22.868;2023-06-22T04:33:37;18.03;;;11.80;;
63807;SDS011;49961;43.970;22.868;2023-06-22T04:34:40;14.73;;;11.70;;
63807;SDS011;49961;43.970;22.868;2023-06-22T04:35:41;16.50;;;11.77;;
63807;SDS011;49961;43.970;22.868;2023-06-22T04:36:44;16.27;;;11.53;;
63807;SDS011;49961;43.970;22.868;2023-06-22T04:37:45;18.77;;;12.13;;
63807;SDS011;49961;43.970;22.868;2023-06-22T04:38:46;28.13;;;13.07;;
63807;SDS011;49961;43.970;22.868;2023-06-22T04:39:46;17.00;;;12.43;;
63807;SDS011;49961;43.970;22.868;2023-06-22T04:40:47;16.10;;;12.80;;
63807;SDS011;49961;43.970;22.868;2023-06-22T04:41:47;14.53;;;12.20;;
63807;SDS011;49961;43.970;22.868;2023-06-22T04:42:47;15.83;;;12.40;;
63807;SDS011;49961;43.970;22.868;2023-06-22T04:43:53;24.80;;;14.07;;
63807;SDS011;49961;43.970;22.868;2023-06-22T04:44:54;18.67;;;12.03;;
63807;SDS011;49961;43.970;22.868;2023-06-22T04:45:54;19.60;;;12.70;;
63807;SDS011;49961;43.970;22.868;2023-06-22T04:46:58;15.07;;;11.87;;
63807;SDS011;49961;43.970;22.868;2023-06-22T04:48:04;16.70;;;14.00;;
63807;SDS011;49961;43.970;22.868;2023-06-22T04:49:06;13.80;;;10.97;;
63807;SDS011;49961;43.970;22.868;2023-06-22T04:50:09;14.43;;;11.37;;
63807;SDS011;49961;43.970;22.868;2023-06-22T04:51:10;17.23;;;11.13;;
63807;SDS011;49961;43.970;22.868;2023-06-22T04:52:11;18.37;;;12.00;;
63807;SDS011;49961;43.970;22.868;2023-06-22T04:53:12;15.03;;;12.30;;
63807;SDS011;49961;43.970;22.868;2023-06-22T04:54:13;13.87;;;11.97;;
63807;SDS011;49961;43.970;22.868;2023-06-22T04:55:14;13.93;;;10.47;;
63807;SDS011;49961;43.970;22.868;2023-06-22T04:56:18;16.27;;;11.00;;
63807;SDS011;49961;43.970;22.868;2023-06-22T04:57:21;14.30;;;11.13;;
63807;SDS011;49961;43.970;22.868;2023-06-22T04:58:32;14.47;;;11.83;;
63807;SDS011;49961;43.970;22.868;2023-06-22T04:59:33;13.57;;;12.10;;
63807;SDS011;49961;43.970;22.868;2023-06-22T05:00:33;15.50;;;11.07;;
63807;SDS011;49961;43.970;22.868;2023-06-22T05:01:36;16.07;;;11.40;;
63807;SDS011;49961;43.970;22.868;2023-06-22T05:02:37;13.37;;;10.77;;
63807;SDS011;49961;43.970;22.868;2023-06-22T05:03:38;14.67;;;11.40;;
63807;SDS011;49961;43.970;22.868;2023-06-22T05:04:41;12.53;;;11.17;;
63807;SDS011;49961;43.970;22.868;2023-06-22T05:05:42;15.40;;;11.27;;
63807;SDS011;49961;43.970;22.868;2023-06-22T05:06:42;17.77;;;12.03;;
63807;SDS011;49961;43.970;22.868;2023-06-22T05:07:43;12.57;;;10.57;;
63807;SDS011;49961;43.970;22.868;2023-06-22T05:08:44;18.93;;;11.77;;
63807;SDS011;49961;43.970;22.868;2023-06-22T05:09:45;14.17;;;11.40;;
63807;SDS011;49961;43.970;22.868;2023-06-22T05:10:45;15.70;;;11.20;;
63807;SDS011;49961;43.970;22.868;2023-06-22T05:11:46;14.57;;;10.83;;
63807;SDS011;49961;43.970;22.868;2023-06-22T05:12:47;12.70;;;11.40;;
63807;SDS011;49961;43.970;22.868;2023-06-22T05:13:47;14.77;;;11.17;;
63807;SDS011;49961;43.970;22.868;2023-06-22T05:14:47;12.93;;;11.53;;
63807;SDS011;49961;43.970;22.868;2023-06-22T05:15:48;15.43;;;11.40;;
63807;SDS011;49961;43.970;22.868;2023-06-22T05:16:48;13.77;;;11.80;;
63807;SDS011;49961;43.970;22.868;2023-06-22T05:17:51;13.10;;;11.77;;
63807;SDS011;49961;43.970;22.868;2023-06-22T05:18:52;14.83;;;11.80;;
63807;SDS011;49961;43.970;22.868;2023-06-22T05:19:54;15.73;;;11.87;;
63807;SDS011;49961;43.970;22.868;2023-06-22T05:20:55;13.57;;;11.90;;
63807;SDS011;49961;43.970;22.868;2023-06-22T05:21:55;14.43;;;11.70;;
63807;SDS011;49961;43.970;22.868;2023-06-22T05:22:55;14.83;;;11.33;;
63807;SDS011;49961;43.970;22.868;2023-06-22T05:23:56;21.93;;;13.13;;
63807;SDS011;49961;43.970;22.868;2023-06-22T05:25:02;19.23;;;13.10;;
63807;SDS011;49961;43.970;22.868;2023-06-22T05:26:03;19.30;;;12.90;;
63807;SDS011;49961;43.970;22.868;2023-06-22T05:27:03;14.90;;;12.33;;
63807;SDS011;49961;43.970;22.868;2023-06-22T05:28:04;16.77;;;13.27;;
63807;SDS011;49961;43.970;22.868;2023-06-22T05:29:10;17.70;;;12.63;;
63807;SDS011;49961;43.970;22.868;2023-06-22T05:30:11;17.23;;;15.27;;
63807;SDS011;49961;43.970;22.868;2023-06-22T05:31:12;28.00;;;25.20;;
63807;SDS011;49961;43.970;22.868;2023-06-22T05:32:13;29.23;;;26.33;;
63807;SDS011;49961;43.970;22.868;2023-06-22T05:33:14;28.63;;;25.73;;
63807;SDS011;49961;43.970;22.868;2023-06-22T05:34:14;23.93;;;21.60;;
63807;SDS011;49961;43.970;22.868;2023-06-22T05:35:15;22.97;;;20.27;;
63807;SDS011;49961;43.970;22.868;2023-06-22T05:36:15;21.60;;;19.40;;
63807;SDS011;49961;43.970;22.868;2023-06-22T05:37:16;19.43;;;17.37;;
63807;SDS011;49961;43.970;22.868;2023-06-22T05:38:16;20.03;;;17.17;;
63807;SDS011;49961;43.970;22.868;2023-06-22T05:39:16;18.23;;;16.40;;
63807;SDS011;49961;43.970;22.868;2023-06-22T05:40:17;20.77;;;17.07;;
63807;SDS011;49961;43.970;22.868;2023-06-22T05:41:17;19.37;;;17.13;;
63807;SDS011;49961;43.970;22.868;2023-06-22T05:42:18;18.80;;;16.90;;
63807;SDS011;49961;43.970;22.868;2023-06-22T05:43:18;19.00;;;16.60;;
63807;SDS011;49961;43.970;22.868;2023-06-22T05:44:19;18.77;;;16.53;;
63807;SDS011;49961;43.970;22.868;2023-06-22T05:45:19;20.77;;;16.93;;
63807;SDS011;49961;43.970;22.868;2023-06-22T05:46:20;20.33;;;18.33;;
63807;SDS011;49961;43.970;22.868;2023-06-22T05:47:20;20.77;;;18.40;;
63807;SDS011;49961;43.970;22.868;2023-06-22T05:48:21;23.83;;;21.33;;
63807;SDS011;49961;43.970;22.868;2023-06-22T05:49:21;28.43;;;25.63;;
63807;SDS011;49961;43.970;22.868;2023-06-22T05:50:23;28.00;;;25.03;;
63807;SDS011;49961;43.970;22.868;2023-06-22T05:51:23;26.07;;;22.90;;
63807;SDS011;49961;43.970;22.868;2023-06-22T05:52:23;28.00;;;23.10;;
63807;SDS011;49961;43.970;22.868;2023-06-22T05:53:24;22.53;;;20.23;;
63807;SDS011;49961;43.970;22.868;2023-06-22T05:54:24;21.03;;;18.93;;
63807;SDS011;49961;43.970;22.868;2023-06-22T05:55:25;16.90;;;15.17;;
63807;SDS011;49961;43.970;22.868;2023-06-22T05:56:26;19.70;;;15.30;;
63807;SDS011;49961;43.970;22.868;2023-06-22T05:57:26;19.27;;;14.40;;
63807;SDS011;49961;43.970;22.868;2023-06-22T05:58:26;15.73;;;14.10;;
63807;SDS011;49961;43.970;22.868;2023-06-22T05:59:27;16.00;;;14.30;;
63807;SDS011;49961;43.970;22.868;2023-06-22T06:00:27;17.63;;;14.23;;
63807;SDS011;49961;43.970;22.868;2023-06-22T06:01:27;18.53;;;14.73;;
63807;SDS011;49961;43.970;22.868;2023-06-22T06:02:28;15.87;;;14.27;;
63807;SDS011;49961;43.970;22.868;2023-06-22T06:03:29;19.77;;;15.20;;
63807;SDS011;49961;43.970;22.868;2023-06-22T06:04:29;18.30;;;15.37;;
63807;SDS011;49961;43.970;22.868;2023-06-22T06:05:30;17.23;;;14.37;;
63807;SDS011;49961;43.970;22.868;2023-06-22T06:06:32;17.30;;;15.40;;
63807;SDS011;49961;43.970;22.868;2023-06-22T06:07:34;21.00;;;19.03;;
63807;SDS011;49961;43.970;22.868;2023-06-22T06:08:35;17.50;;;14.80;;
63807;SDS011;49961;43.970;22.868;2023-06-22T06:09:35;16.63;;;14.40;;
63807;SDS011;49961;43.970;22.868;2023-06-22T06:10:36;15.70;;;13.80;;